Terminal Aerodrome Forecast
Issued by NWS

Home | Current Version | Previous Version | Text Only | Print | Product List | Glossary On
Versions: 1 2 3 4 5 6 7 8 9 10 11 12 13 14 15 16 17 18 19 20 21 22
760
FTUS43 KDLH 282343
TAFHIB
TAF
KHIB 282343Z 2900/2924 27005KT P6SM VCSH SCT070 BKN100
     FM290400 29006KT P6SM SCT025 BKN060
     FM290800 31007KT P6SM VCSH OVC012
     FM291200 32010KT 5SM -SHRA BR OVC008
     FM291800 30012KT P6SM VCSH OVC008
     FM292100 30012G21KT P6SM BKN015=

USA.gov is the U.S. government's official web portal to all federal, state and local government web resources and services.